sensor_id;sensor_type;location;lat;lon;timestamp;pressure;altitude;pressure_sealevel;temperature;humidity
64628;BME280;68467;50.960;0.314;2023-03-19T00:02:16;99378.11;;;6.54;100.00
64628;BME280;68467;50.960;0.314;2023-03-19T00:04:43;99379.05;;;5.82;100.00
64628;BME280;68467;50.960;0.314;2023-03-19T00:07:10;99372.04;;;5.77;100.00
64628;BME280;68467;50.960;0.314;2023-03-19T00:09:38;99375.43;;;6.56;100.00
64628;BME280;68467;50.960;0.314;2023-03-19T00:12:06;99375.91;;;7.25;100.00
64628;BME280;68467;50.960;0.314;2023-03-19T00:14:34;99371.32;;;7.32;100.00
64628;BME280;68467;50.960;0.314;2023-03-19T00:17:01;99371.97;;;8.16;100.00
64628;BME280;68467;50.960;0.314;2023-03-19T00:19:29;99373.05;;;8.04;100.00
64628;BME280;68467;50.960;0.314;2023-03-19T00:21:56;99377.29;;;7.96;100.00
64628;BME280;68467;50.960;0.314;2023-03-19T00:24:23;99379.01;;;7.63;100.00
64628;BME280;68467;50.960;0.314;2023-03-19T00:26:50;99380.94;;;7.28;100.00
64628;BME280;68467;50.960;0.314;2023-03-19T00:29:18;99385.62;;;7.14;100.00
64628;BME280;68467;50.960;0.314;2023-03-19T00:31:45;99376.11;;;7.35;100.00
64628;BME280;68467;50.960;0.314;2023-03-19T00:34:12;99369.43;;;6.84;100.00
64628;BME280;68467;50.960;0.314;2023-03-19T00:36:39;99366.05;;;7.52;100.00
64628;BME280;68467;50.960;0.314;2023-03-19T00:39:06;99366.00;;;7.71;100.00
64628;BME280;68467;50.960;0.314;2023-03-19T00:41:33;99367.97;;;7.75;100.00
64628;BME280;68467;50.960;0.314;2023-03-19T00:44:02;99373.84;;;8.01;100.00
64628;BME280;68467;50.960;0.314;2023-03-19T00:46:30;99388.55;;;5.76;100.00
64628;BME280;68467;50.960;0.314;2023-03-19T00:48:58;99401.76;;;5.42;100.00
64628;BME280;68467;50.960;0.314;2023-03-19T00:51:25;99402.71;;;5.51;100.00
64628;BME280;68467;50.960;0.314;2023-03-19T00:53:52;99401.36;;;5.58;100.00
64628;BME280;68467;50.960;0.314;2023-03-19T00:56:19;99405.41;;;5.49;100.00
64628;BME280;68467;50.960;0.314;2023-03-19T00:58:47;99409.55;;;6.04;100.00
64628;BME280;68467;50.960;0.314;2023-03-19T01:01:16;99421.81;;;5.19;100.00
64628;BME280;68467;50.960;0.314;2023-03-19T01:03:44;99424.24;;;5.86;100.00
64628;BME280;68467;50.960;0.314;2023-03-19T01:06:12;99426.27;;;5.51;100.00
64628;BME280;68467;50.960;0.314;2023-03-19T01:08:39;99425.07;;;5.24;100.00
64628;BME280;68467;50.960;0.314;2023-03-19T01:11:09;99432.49;;;4.39;100.00
64628;BME280;68467;50.960;0.314;2023-03-19T01:13:36;99434.95;;;4.61;100.00
64628;BME280;68467;50.960;0.314;2023-03-19T01:16:05;99429.30;;;5.26;100.00
64628;BME280;68467;50.960;0.314;2023-03-19T01:18:33;99429.79;;;5.19;100.00
64628;BME280;68467;50.960;0.314;2023-03-19T01:21:01;99428.47;;;5.88;100.00
64628;BME280;68467;50.960;0.314;2023-03-19T01:23:29;99428.50;;;5.46;100.00
64628;BME280;68467;50.960;0.314;2023-03-19T01:25:57;99421.23;;;5.36;100.00
64628;BME280;68467;50.960;0.314;2023-03-19T01:28:25;99421.73;;;5.72;100.00
64628;BME280;68467;50.960;0.314;2023-03-19T01:30:52;99422.74;;;4.63;100.00
64628;BME280;68467;50.960;0.314;2023-03-19T01:33:23;99423.82;;;4.77;100.00
64628;BME280;68467;50.960;0.314;2023-03-19T01:35:50;99422.21;;;4.85;100.00
64628;BME280;68467;50.960;0.314;2023-03-19T01:38:17;99420.51;;;5.53;100.00
64628;BME280;68467;50.960;0.314;2023-03-19T01:40:46;99426.05;;;5.04;100.00
64628;BME280;68467;50.960;0.314;2023-03-19T01:43:17;99428.68;;;5.26;100.00
64628;BME280;68467;50.960;0.314;2023-03-19T01:45:46;99431.67;;;5.34;100.00
64628;BME280;68467;50.960;0.314;2023-03-19T01:48:23;99428.42;;;5.27;100.00
64628;BME280;68467;50.960;0.314;2023-03-19T01:50:52;99427.47;;;5.92;100.00
64628;BME280;68467;50.960;0.314;2023-03-19T01:53:22;99426.11;;;5.44;100.00
64628;BME280;68467;50.960;0.314;2023-03-19T01:55:51;99424.87;;;5.53;100.00
64628;BME280;68467;50.960;0.314;2023-03-19T01:58:21;99421.80;;;5.51;100.00
64628;BME280;68467;50.960;0.314;2023-03-19T02:00:49;99417.95;;;6.30;100.00
64628;BME280;68467;50.960;0.314;2023-03-19T02:03:16;99413.10;;;5.98;100.00
64628;BME280;68467;50.960;0.314;2023-03-19T02:05:45;99408.75;;;6.65;100.00
64628;BME280;68467;50.960;0.314;2023-03-19T02:08:16;99399.44;;;7.05;100.00
64628;BME280;68467;50.960;0.314;2023-03-19T02:10:46;99405.34;;;6.43;100.00
64628;BME280;68467;50.960;0.314;2023-03-19T02:13:13;99405.26;;;6.00;100.00
64628;BME280;68467;50.960;0.314;2023-03-19T02:15:40;99405.97;;;6.59;100.00
64628;BME280;68467;50.960;0.314;2023-03-19T02:18:08;99409.62;;;6.31;100.00
64628;BME280;68467;50.960;0.314;2023-03-19T02:20:41;99411.84;;;6.86;100.00
64628;BME280;68467;50.960;0.314;2023-03-19T02:23:15;99407.06;;;6.36;100.00
64628;BME280;68467;50.960;0.314;2023-03-19T02:25:59;99411.48;;;5.76;100.00
64628;BME280;68467;50.960;0.314;2023-03-19T02:28:28;99409.14;;;7.13;100.00
64628;BME280;68467;50.960;0.314;2023-03-19T02:30:56;99407.97;;;7.39;100.00
64628;BME280;68467;50.960;0.314;2023-03-19T02:33:23;99408.66;;;6.91;100.00
64628;BME280;68467;50.960;0.314;2023-03-19T02:35:51;99414.22;;;7.01;100.00
64628;BME280;68467;50.960;0.314;2023-03-19T02:38:19;99410.95;;;7.65;100.00
64628;BME280;68467;50.960;0.314;2023-03-19T02:40:50;99408.97;;;7.10;100.00
64628;BME280;68467;50.960;0.314;2023-03-19T02:43:20;99413.90;;;7.10;100.00
64628;BME280;68467;50.960;0.314;2023-03-19T02:45:50;99419.46;;;6.70;100.00
64628;BME280;68467;50.960;0.314;2023-03-19T02:48:18;99420.59;;;7.08;100.00
64628;BME280;68467;50.960;0.314;2023-03-19T02:50:45;99422.55;;;6.56;100.00
64628;BME280;68467;50.960;0.314;2023-03-19T02:53:12;99427.39;;;6.40;100.00
64628;BME280;68467;50.960;0.314;2023-03-19T02:55:39;99430.41;;;6.63;100.00
64628;BME280;68467;50.960;0.314;2023-03-19T02:58:06;99429.09;;;6.47;100.00
64628;BME280;68467;50.960;0.314;2023-03-19T03:00:34;99425.40;;;6.19;100.00
64628;BME280;68467;50.960;0.314;2023-03-19T03:03:07;99421.71;;;5.78;100.00
64628;BME280;68467;50.960;0.314;2023-03-19T03:05:35;99427.35;;;6.10;100.00
64628;BME280;68467;50.960;0.314;2023-03-19T03:08:02;99426.91;;;6.01;100.00
64628;BME280;68467;50.960;0.314;2023-03-19T03:10:29;99422.33;;;5.50;100.00
64628;BME280;68467;50.960;0.314;2023-03-19T03:12:56;99419.17;;;6.14;100.00
64628;BME280;68467;50.960;0.314;2023-03-19T03:15:23;99424.31;;;6.25;100.00
64628;BME280;68467;50.960;0.314;2023-03-19T03:17:50;99426.95;;;6.39;100.00
64628;BME280;68467;50.960;0.314;2023-03-19T03:20:18;99430.52;;;5.88;100.00
64628;BME280;68467;50.960;0.314;2023-03-19T03:22:45;99423.65;;;6.48;100.00
64628;BME280;68467;50.960;0.314;2023-03-19T03:25:13;99420.74;;;6.73;100.00
64628;BME280;68467;50.960;0.314;2023-03-19T03:27:40;99417.68;;;6.01;100.00
64628;BME280;68467;50.960;0.314;2023-03-19T03:30:09;99424.68;;;5.63;100.00
64628;BME280;68467;50.960;0.314;2023-03-19T03:32:37;99432.00;;;5.42;100.00
64628;BME280;68467;50.960;0.314;2023-03-19T03:35:05;99438.58;;;5.55;100.00
64628;BME280;68467;50.960;0.314;2023-03-19T03:37:33;99443.37;;;5.12;100.00
64628;BME280;68467;50.960;0.314;2023-03-19T03:40:00;99442.38;;;4.83;100.00
64628;BME280;68467;50.960;0.314;2023-03-19T03:42:27;99447.73;;;4.92;100.00
64628;BME280;68467;50.960;0.314;2023-03-19T03:44:55;99443.90;;;4.96;100.00
64628;BME280;68467;50.960;0.314;2023-03-19T03:47:22;99448.72;;;4.86;100.00
64628;BME280;68467;50.960;0.314;2023-03-19T03:49:49;99450.23;;;5.52;100.00
64628;BME280;68467;50.960;0.314;2023-03-19T03:52:16;99451.11;;;5.26;100.00
64628;BME280;68467;50.960;0.314;2023-03-19T03:54:43;99443.81;;;5.27;100.00
64628;BME280;68467;50.960;0.314;2023-03-19T03:57:10;99443.92;;;5.41;100.00
64628;BME280;68467;50.960;0.314;2023-03-19T03:59:38;99447.82;;;5.18;100.00
64628;BME280;68467;50.960;0.314;2023-03-19T04:02:05;99455.18;;;4.83;100.00
64628;BME280;68467;50.960;0.314;2023-03-19T04:04:32;99454.98;;;5.14;100.00
64628;BME280;68467;50.960;0.314;2023-03-19T04:06:59;99459.66;;;4.81;100.00
64628;BME280;68467;50.960;0.314;2023-03-19T04:09:26;99457.35;;;5.35;100.00
64628;BME280;68467;50.960;0.314;2023-03-19T04:11:53;99462.97;;;5.24;100.00
64628;BME280;68467;50.960;0.314;2023-03-19T04:14:20;99458.88;;;4.91;100.00
64628;BME280;68467;50.960;0.314;2023-03-19T04:16:48;99468.85;;;5.19;100.00
64628;BME280;68467;50.960;0.314;2023-03-19T04:19:15;99471.66;;;5.41;100.00
64628;BME280;68467;50.960;0.314;2023-03-19T04:21:42;99482.28;;;5.33;100.00
64628;BME280;68467;50.960;0.314;2023-03-19T04:24:09;99493.84;;;5.87;100.00
64628;BME280;68467;50.960;0.314;2023-03-19T04:26:36;99503.93;;;4.89;100.00
64628;BME280;68467;50.960;0.314;2023-03-19T04:29:03;99511.23;;;4.91;100.00
64628;BME280;68467;50.960;0.314;2023-03-19T04:31:30;99516.93;;;4.86;100.00
64628;BME280;68467;50.960;0.314;2023-03-19T04:33:57;99529.38;;;5.08;100.00
64628;BME280;68467;50.960;0.314;2023-03-19T04:36:25;99534.07;;;4.70;100.00
64628;BME280;68467;50.960;0.314;2023-03-19T04:38:52;99534.60;;;4.76;100.00
64628;BME280;68467;50.960;0.314;2023-03-19T04:41:19;99534.24;;;5.02;100.00
64628;BME280;68467;50.960;0.314;2023-03-19T04:43:46;99546.57;;;4.66;100.00
64628;BME280;68467;50.960;0.314;2023-03-19T04:46:13;99555.02;;;4.62;100.00
64628;BME280;68467;50.960;0.314;2023-03-19T04:48:40;99547.10;;;4.41;100.00
64628;BME280;68467;50.960;0.314;2023-03-19T04:51:07;99555.85;;;4.41;100.00
64628;BME280;68467;50.960;0.314;2023-03-19T04:53:35;99561.75;;;4.60;100.00
64628;BME280;68467;50.960;0.314;2023-03-19T04:56:02;99556.99;;;4.25;100.00
64628;BME280;68467;50.960;0.314;2023-03-19T04:58:30;99554.72;;;4.67;100.00
64628;BME280;68467;50.960;0.314;2023-03-19T05:00:57;99551.00;;;4.74;100.00
64628;BME280;68467;50.960;0.314;2023-03-19T05:03:25;99545.98;;;4.95;100.00
64628;BME280;68467;50.960;0.314;2023-03-19T05:05:52;99546.00;;;4.92;100.00
64628;BME280;68467;50.960;0.314;2023-03-19T05:08:19;99552.80;;;5.22;100.00
64628;BME280;68467;50.960;0.314;2023-03-19T05:10:46;99556.23;;;5.01;100.00
64628;BME280;68467;50.960;0.314;2023-03-19T05:13:13;99555.16;;;5.94;100.00
64628;BME280;68467;50.960;0.314;2023-03-19T05:15:42;99563.34;;;4.76;100.00
64628;BME280;68467;50.960;0.314;2023-03-19T05:18:12;99565.69;;;5.83;100.00
64628;BME280;68467;50.960;0.314;2023-03-19T05:20:38;99570.35;;;5.26;100.00
64628;BME280;68467;50.960;0.314;2023-03-19T05:23:06;99570.49;;;5.59;100.00
64628;BME280;68467;50.960;0.314;2023-03-19T05:25:33;99577.43;;;5.19;100.00
64628;BME280;68467;50.960;0.314;2023-03-19T05:28:01;99584.74;;;4.91;100.00
64628;BME280;68467;50.960;0.314;2023-03-19T05:30:28;99591.86;;;4.86;100.00
64628;BME280;68467;50.960;0.314;2023-03-19T05:32:55;99599.95;;;4.99;100.00
64628;BME280;68467;50.960;0.314;2023-03-19T05:35:24;99595.56;;;6.23;100.00
64628;BME280;68467;50.960;0.314;2023-03-19T05:37:51;99602.14;;;5.05;100.00
64628;BME280;68467;50.960;0.314;2023-03-19T05:40:18;99608.35;;;5.42;100.00
64628;BME280;68467;50.960;0.314;2023-03-19T05:42:45;99613.66;;;5.01;100.00
64628;BME280;68467;50.960;0.314;2023-03-19T05:45:12;99617.35;;;5.39;100.00
64628;BME280;68467;50.960;0.314;2023-03-19T05:47:39;99616.44;;;5.55;100.00
64628;BME280;68467;50.960;0.314;2023-03-19T05:50:08;99612.28;;;5.48;100.00
64628;BME280;68467;50.960;0.314;2023-03-19T05:52:35;99616.80;;;4.98;100.00
64628;BME280;68467;50.960;0.314;2023-03-19T05:55:02;99620.93;;;5.50;100.00
64628;BME280;68467;50.960;0.314;2023-03-19T05:57:30;99620.85;;;5.41;100.00
64628;BME280;68467;50.960;0.314;2023-03-19T05:59:57;99619.56;;;6.30;100.00
64628;BME280;68467;50.960;0.314;2023-03-19T06:02:24;99625.53;;;5.54;100.00
64628;BME280;68467;50.960;0.314;2023-03-19T06:04:51;99627.93;;;4.93;100.00
64628;BME280;68467;50.960;0.314;2023-03-19T06:07:18;99633.84;;;4.94;100.00
64628;BME280;68467;50.960;0.314;2023-03-19T06:09:46;99637.72;;;4.65;100.00
64628;BME280;68467;50.960;0.314;2023-03-19T06:12:13;99641.11;;;4.88;100.00
64628;BME280;68467;50.960;0.314;2023-03-19T06:14:40;99644.24;;;4.08;100.00
64628;BME280;68467;50.960;0.314;2023-03-19T06:17:07;99642.83;;;3.93;100.00
64628;BME280;68467;50.960;0.314;2023-03-19T06:19:34;99648.67;;;4.58;100.00
64628;BME280;68467;50.960;0.314;2023-03-19T06:22:02;99654.97;;;3.91;100.00
64628;BME280;68467;50.960;0.314;2023-03-19T06:24:29;99661.87;;;3.99;100.00
64628;BME280;68467;50.960;0.314;2023-03-19T06:26:56;99667.28;;;3.94;100.00
64628;BME280;68467;50.960;0.314;2023-03-19T06:29:24;99669.63;;;4.11;100.00
64628;BME280;68467;50.960;0.314;2023-03-19T06:31:51;99670.12;;;4.16;100.00
64628;BME280;68467;50.960;0.314;2023-03-19T06:34:18;99673.66;;;3.84;100.00
64628;BME280;68467;50.960;0.314;2023-03-19T06:36:45;99679.84;;;4.43;100.00
64628;BME280;68467;50.960;0.314;2023-03-19T06:39:12;99682.34;;;3.57;100.00
64628;BME280;68467;50.960;0.314;2023-03-19T06:41:39;99688.38;;;4.20;100.00
64628;BME280;68467;50.960;0.314;2023-03-19T06:44:06;99694.80;;;3.55;100.00
64628;BME280;68467;50.960;0.314;2023-03-19T06:46:33;99696.72;;;3.64;100.00
64628;BME280;68467;50.960;0.314;2023-03-19T06:49:01;99702.61;;;3.80;100.00
64628;BME280;68467;50.960;0.314;2023-03-19T06:51:28;99705.07;;;3.51;100.00
64628;BME280;68467;50.960;0.314;2023-03-19T06:53:55;99706.86;;;3.38;100.00
64628;BME280;68467;50.960;0.314;2023-03-19T06:56:22;99707.45;;;3.73;100.00
64628;BME280;68467;50.960;0.314;2023-03-19T06:58:49;99709.48;;;3.38;100.00
64628;BME280;68467;50.960;0.314;2023-03-19T07:01:17;99712.76;;;3.68;100.00
64628;BME280;68467;50.960;0.314;2023-03-19T07:03:44;99715.29;;;3.30;100.00
64628;BME280;68467;50.960;0.314;2023-03-19T07:06:11;99716.56;;;3.81;100.00
64628;BME280;68467;50.960;0.314;2023-03-19T07:08:38;99718.66;;;3.59;100.00
64628;BME280;68467;50.960;0.314;2023-03-19T07:11:06;99723.45;;;3.24;100.00
64628;BME280;68467;50.960;0.314;2023-03-19T07:13:33;99727.13;;;3.65;100.00
64628;BME280;68467;50.960;0.314;2023-03-19T07:16:01;99729.31;;;3.46;100.00
64628;BME280;68467;50.960;0.314;2023-03-19T07:18:28;99735.42;;;3.49;100.00
64628;BME280;68467;50.960;0.314;2023-03-19T07:20:56;99738.35;;;4.17;100.00
64628;BME280;68467;50.960;0.314;2023-03-19T07:23:23;99739.84;;;4.92;100.00
64628;BME280;68467;50.960;0.314;2023-03-19T07:25:50;99742.56;;;4.27;100.00
64628;BME280;68467;50.960;0.314;2023-03-19T07:28:18;99746.85;;;3.78;100.00
64628;BME280;68467;50.960;0.314;2023-03-19T07:30:45;99748.85;;;4.52;100.00
64628;BME280;68467;50.960;0.314;2023-03-19T07:33:12;99754.86;;;4.45;100.00
64628;BME280;68467;50.960;0.314;2023-03-19T07:35:39;99763.82;;;4.16;100.00
64628;BME280;68467;50.960;0.314;2023-03-19T07:38:07;99764.43;;;4.41;100.00
64628;BME280;68467;50.960;0.314;2023-03-19T07:40:34;99768.04;;;4.55;100.00
64628;BME280;68467;50.960;0.314;2023-03-19T07:43:01;99768.08;;;4.82;100.00
64628;BME280;68467;50.960;0.314;2023-03-19T07:45:28;99774.74;;;5.29;100.00
64628;BME280;68467;50.960;0.314;2023-03-19T07:47:55;99773.58;;;4.57;100.00
64628;BME280;68467;50.960;0.314;2023-03-19T07:50:22;99782.96;;;4.19;100.00
64628;BME280;68467;50.960;0.314;2023-03-19T07:52:50;99784.83;;;5.27;100.00
64628;BME280;68467;50.960;0.314;2023-03-19T07:55:18;99784.07;;;4.67;100.00
64628;BME280;68467;50.960;0.314;2023-03-19T07:57:45;99788.71;;;5.20;100.00
64628;BME280;68467;50.960;0.314;2023-03-19T08:00:13;99785.05;;;5.45;100.00
64628;BME280;68467;50.960;0.314;2023-03-19T08:02:41;99796.75;;;5.11;100.00
64628;BME280;68467;50.960;0.314;2023-03-19T08:05:18;99801.70;;;4.24;100.00
64628;BME280;68467;50.960;0.314;2023-03-19T08:07:50;99795.60;;;5.80;100.00
64628;BME280;68467;50.960;0.314;2023-03-19T08:10:18;99802.43;;;5.06;100.00
64628;BME280;68467;50.960;0.314;2023-03-19T08:12:45;99799.72;;;4.74;100.00
64628;BME280;68467;50.960;0.314;2023-03-19T08:15:12;99804.63;;;4.84;100.00
64628;BME280;68467;50.960;0.314;2023-03-19T08:17:39;99811.14;;;5.34;100.00
64628;BME280;68467;50.960;0.314;2023-03-19T08:20:09;99809.48;;;5.61;100.00
64628;BME280;68467;50.960;0.314;2023-03-19T08:22:37;99812.89;;;5.48;100.00
64628;BME280;68467;50.960;0.314;2023-03-19T08:25:06;99815.48;;;5.30;100.00
64628;BME280;68467;50.960;0.314;2023-03-19T08:27:38;99816.72;;;5.99;100.00
64628;BME280;68467;50.960;0.314;2023-03-19T08:30:11;99815.15;;;5.19;100.00
64628;BME280;68467;50.960;0.314;2023-03-19T08:32:39;99816.34;;;5.50;100.00
64628;BME280;68467;50.960;0.314;2023-03-19T08:35:07;99817.06;;;5.01;100.00
64628;BME280;68467;50.960;0.314;2023-03-19T08:37:34;99819.94;;;5.28;100.00
64628;BME280;68467;50.960;0.314;2023-03-19T08:40:01;99821.68;;;5.40;100.00
64628;BME280;68467;50.960;0.314;2023-03-19T08:42:29;99823.10;;;6.10;100.00
64628;BME280;68467;50.960;0.314;2023-03-19T08:44:56;99833.63;;;6.36;100.00
64628;BME280;68467;50.960;0.314;2023-03-19T08:47:28;99834.31;;;5.04;100.00
64628;BME280;68467;50.960;0.314;2023-03-19T08:49:55;99845.28;;;5.82;100.00
64628;BME280;68467;50.960;0.314;2023-03-19T08:52:27;99843.23;;;5.18;100.00
64628;BME280;68467;50.960;0.314;2023-03-19T08:54:55;99845.19;;;5.17;100.00
64628;BME280;68467;50.960;0.314;2023-03-19T08:57:22;99840.82;;;5.91;100.00
64628;BME280;68467;50.960;0.314;2023-03-19T08:59:49;99845.99;;;5.55;100.00
64628;BME280;68467;50.960;0.314;2023-03-19T09:02:18;99845.64;;;6.14;100.00
64628;BME280;68467;50.960;0.314;2023-03-19T09:09:09;99851.80;;;6.03;100.00
64628;BME280;68467;50.960;0.314;2023-03-19T09:11:36;99862.21;;;5.36;100.00
64628;BME280;68467;50.960;0.314;2023-03-19T09:14:03;99868.03;;;5.92;100.00
64628;BME280;68467;50.960;0.314;2023-03-19T09:16:35;99862.67;;;6.51;100.00
64628;BME280;68467;50.960;0.314;2023-03-19T09:19:02;99868.31;;;6.04;100.00
64628;BME280;68467;50.960;0.314;2023-03-19T09:21:30;99868.42;;;6.25;100.00
64628;BME280;68467;50.960;0.314;2023-03-19T09:23:56;99864.41;;;6.23;100.00
64628;BME280;68467;50.960;0.314;2023-03-19T09:26:34;99868.90;;;5.66;100.00
64628;BME280;68467;50.960;0.314;2023-03-19T09:29:01;99873.19;;;5.61;100.00
64628;BME280;68467;50.960;0.314;2023-03-19T09:31:28;99878.85;;;5.91;100.00
64628;BME280;68467;50.960;0.314;2023-03-19T09:33:55;99880.70;;;6.39;100.00
64628;BME280;68467;50.960;0.314;2023-03-19T09:36:22;99883.02;;;6.10;100.00
64628;BME280;68467;50.960;0.314;2023-03-19T09:38:50;99878.55;;;6.29;100.00
64628;BME280;68467;50.960;0.314;2023-03-19T09:41:22;99885.48;;;6.10;100.00
64628;BME280;68467;50.960;0.314;2023-03-19T09:43:58;99880.25;;;6.57;100.00
64628;BME280;68467;50.960;0.314;2023-03-19T09:46:40;99877.56;;;6.46;100.00
64628;BME280;68467;50.960;0.314;2023-03-19T09:49:16;99885.78;;;7.37;100.00
64628;BME280;68467;50.960;0.314;2023-03-19T09:51:50;99892.97;;;8.17;100.00
64628;BME280;68467;50.960;0.314;2023-03-19T09:54:25;99896.69;;;7.22;100.00
64628;BME280;68467;50.960;0.314;2023-03-19T09:56:55;99898.28;;;6.93;100.00
64628;BME280;68467;50.960;0.314;2023-03-19T09:59:23;99911.00;;;6.74;100.00
64628;BME280;68467;50.960;0.314;2023-03-19T10:01:57;99910.08;;;5.97;100.00
64628;BME280;68467;50.960;0.314;2023-03-19T10:04:38;99909.07;;;5.83;100.00
64628;BME280;68467;50.960;0.314;2023-03-19T10:07:20;99909.03;;;6.53;100.00
64628;BME280;68467;50.960;0.314;2023-03-19T10:10:02;99908.13;;;7.39;100.00
64628;BME280;68467;50.960;0.314;2023-03-19T10:12:42;99915.64;;;6.09;100.00
64628;BME280;68467;50.960;0.314;2023-03-19T10:15:17;99915.45;;;7.12;100.00
64628;BME280;68467;50.960;0.314;2023-03-19T10:17:52;99924.83;;;7.08;100.00
64628;BME280;68467;50.960;0.314;2023-03-19T10:20:28;99923.95;;;6.92;100.00
64628;BME280;68467;50.960;0.314;2023-03-19T10:23:01;99921.93;;;7.66;100.00
64628;BME280;68467;50.960;0.314;2023-03-19T10:25:31;99920.51;;;7.91;100.00
64628;BME280;68467;50.960;0.314;2023-03-19T10:28:00;99922.42;;;7.56;100.00
64628;BME280;68467;50.960;0.314;2023-03-19T10:30:34;99930.90;;;6.89;100.00
64628;BME280;68467;50.960;0.314;2023-03-19T10:33:12;99940.83;;;7.60;100.00
64628;BME280;68467;50.960;0.314;2023-03-19T10:35:43;99942.48;;;7.13;100.00
64628;BME280;68467;50.960;0.314;2023-03-19T10:38:18;99937.54;;;6.66;100.00
64628;BME280;68467;50.960;0.314;2023-03-19T10:40:56;99945.18;;;7.34;100.00
64628;BME280;68467;50.960;0.314;2023-03-19T10:43:28;99949.64;;;7.42;100.00
64628;BME280;68467;50.960;0.314;2023-03-19T10:45:56;99951.25;;;7.22;100.00
64628;BME280;68467;50.960;0.314;2023-03-19T10:48:25;99954.07;;;7.66;100.00
64628;BME280;68467;50.960;0.314;2023-03-19T10:50:56;99956.22;;;7.28;100.00
64628;BME280;68467;50.960;0.314;2023-03-19T10:53:30;99960.91;;;6.70;100.00
64628;BME280;68467;50.960;0.314;2023-03-19T10:56:01;99967.86;;;7.00;100.00
64628;BME280;68467;50.960;0.314;2023-03-19T10:58:31;99969.90;;;7.18;100.00
64628;BME280;68467;50.960;0.314;2023-03-19T11:01:04;99971.63;;;7.27;100.00
64628;BME280;68467;50.960;0.314;2023-03-19T11:03:34;99962.35;;;7.52;100.00
64628;BME280;68467;50.960;0.314;2023-03-19T11:06:06;99961.06;;;7.24;100.00
64628;BME280;68467;50.960;0.314;2023-03-19T11:08:35;99963.02;;;7.74;100.00
64628;BME280;68467;50.960;0.314;2023-03-19T11:11:03;99969.42;;;8.52;100.00
64628;BME280;68467;50.960;0.314;2023-03-19T11:13:33;99974.85;;;8.25;100.00
64628;BME280;68467;50.960;0.314;2023-03-19T11:16:01;99974.92;;;8.61;100.00
64628;BME280;68467;50.960;0.314;2023-03-19T11:18:34;99973.24;;;8.96;100.00
64628;BME280;68467;50.960;0.314;2023-03-19T11:21:06;99974.50;;;9.24;100.00
64628;BME280;68467;50.960;0.314;2023-03-19T11:23:39;99971.82;;;9.44;100.00
64628;BME280;68467;50.960;0.314;2023-03-19T11:26:07;99970.94;;;9.75;100.00
64628;BME280;68467;50.960;0.314;2023-03-19T11:28:36;99975.70;;;9.44;100.00
64628;BME280;68467;50.960;0.314;2023-03-19T11:31:10;99978.88;;;9.76;100.00
64628;BME280;68467;50.960;0.314;2023-03-19T11:33:47;99985.02;;;9.36;100.00
64628;BME280;68467;50.960;0.314;2023-03-19T11:36:23;99991.67;;;7.48;100.00
64628;BME280;68467;50.960;0.314;2023-03-19T11:39:00;99996.95;;;8.58;100.00
64628;BME280;68467;50.960;0.314;2023-03-19T11:41:41;99990.57;;;7.90;100.00
64628;BME280;68467;50.960;0.314;2023-03-19T11:44:15;99987.85;;;8.10;100.00
64628;BME280;68467;50.960;0.314;2023-03-19T11:46:49;99975.76;;;8.18;100.00
64628;BME280;68467;50.960;0.314;2023-03-19T11:49:34;99980.49;;;8.12;100.00
64628;BME280;68467;50.960;0.314;2023-03-19T11:52:10;99982.04;;;8.93;100.00
64628;BME280;68467;50.960;0.314;2023-03-19T11:54:46;99984.30;;;9.03;100.00
64628;BME280;68467;50.960;0.314;2023-03-19T11:57:24;99982.04;;;8.87;100.00
64628;BME280;68467;50.960;0.314;2023-03-19T12:00:10;99982.18;;;9.11;100.00
64628;BME280;68467;50.960;0.314;2023-03-19T12:02:52;99980.87;;;9.35;100.00
64628;BME280;68467;50.960;0.314;2023-03-19T12:05:30;99983.43;;;10.13;100.00
64628;BME280;68467;50.960;0.314;2023-03-19T12:08:07;99984.45;;;10.35;100.00
64628;BME280;68467;50.960;0.314;2023-03-19T12:10:44;99982.77;;;10.23;100.00
64628;BME280;68467;50.960;0.314;2023-03-19T12:13:28;99988.93;;;10.45;100.00
64628;BME280;68467;50.960;0.314;2023-03-19T12:16:04;99990.59;;;10.15;100.00
64628;BME280;68467;50.960;0.314;2023-03-19T12:18:50;99987.59;;;10.36;100.00
64628;BME280;68467;50.960;0.314;2023-03-19T12:21:29;99984.63;;;10.92;100.00
64628;BME280;68467;50.960;0.314;2023-03-19T12:24:04;99993.31;;;9.90;100.00
64628;BME280;68467;50.960;0.314;2023-03-19T12:26:47;99997.70;;;10.10;100.00
64628;BME280;68467;50.960;0.314;2023-03-19T12:29:23;100006.89;;;8.50;100.00
64628;BME280;68467;50.960;0.314;2023-03-19T12:32:06;100002.83;;;9.07;100.00
64628;BME280;68467;50.960;0.314;2023-03-19T12:34:41;100005.04;;;9.65;100.00
64628;BME280;68467;50.960;0.314;2023-03-19T12:37:17;100007.45;;;9.06;100.00
64628;BME280;68467;50.960;0.314;2023-03-19T12:39:52;100011.04;;;9.47;100.00
64628;BME280;68467;50.960;0.314;2023-03-19T12:42:28;100008.43;;;9.65;100.00
64628;BME280;68467;50.960;0.314;2023-03-19T12:45:01;100015.84;;;9.38;100.00
64628;BME280;68467;50.960;0.314;2023-03-19T12:47:32;100021.15;;;8.84;100.00
64628;BME280;68467;50.960;0.314;2023-03-19T12:50:06;100021.72;;;8.86;100.00
64628;BME280;68467;50.960;0.314;2023-03-19T12:52:37;100027.55;;;8.46;100.00
64628;BME280;68467;50.960;0.314;2023-03-19T12:55:13;100023.62;;;8.93;100.00
64628;BME280;68467;50.960;0.314;2023-03-19T12:57:45;100020.98;;;10.14;100.00
64628;BME280;68467;50.960;0.314;2023-03-19T13:00:21;100021.21;;;10.15;100.00
64628;BME280;68467;50.960;0.314;2023-03-19T13:02:56;100027.66;;;8.95;100.00
64628;BME280;68467;50.960;0.314;2023-03-19T13:05:33;100025.90;;;8.85;100.00
64628;BME280;68467;50.960;0.314;2023-03-19T13:08:05;100028.42;;;8.81;100.00
64628;BME280;68467;50.960;0.314;2023-03-19T13:10:37;100024.47;;;9.00;100.00
64628;BME280;68467;50.960;0.314;2023-03-19T13:13:19;100019.39;;;8.87;100.00
64628;BME280;68467;50.960;0.314;2023-03-19T13:15:52;100020.10;;;9.58;100.00
64628;BME280;68467;50.960;0.314;2023-03-19T13:18:32;100020.44;;;10.01;100.00